Time;durP1;ratioP1;P1;durP2;ratioP2;P2;SDS_P1;SDS_P2;PMS_P1;PMS_P2;Temp;Humidity;BMP_temperature;BMP_pressure;BME280_temperature;BME280_humidity;BME280_pressure;Samples;Min_cycle;Max_cycle;Signal;HPM_P1;HPM_P2
2022/05/17 00:00:07;;;;;;;353.77;201.75;;;;;;;20.39;68.92;99817.38;340367;29;1419;-76
2022/05/17 00:00:18;;;;;;;350.15;197.43;;;;;;;20.38;68.58;99813.03;337042;29;1262;-76
2022/05/17 00:00:28;;;;;;;352.33;198.38;;;;;;;20.39;68.94;99817.38;335791;29;847;-76
2022/05/17 00:00:39;;;;;;;352.00;200.40;;;;;;;20.38;68.77;99814.84;338331;29;1290;-76
2022/05/17 00:00:49;;;;;;;352.37;201.67;;;;;;;20.36;68.59;99812.25;339657;29;1261;-76
2022/05/17 00:00:59;;;;;;;349.90;200.07;;;;;;;20.34;68.64;99813.38;336364;29;1572;-76
2022/05/17 00:01:10;;;;;;;349.00;198.53;;;;;;;20.34;68.64;99813.38;338357;28;1317;-76
2022/05/17 00:01:22;;;;;;;349.90;199.05;;;;;;;20.35;68.79;99815.06;336858;29;1577;-76
2022/05/17 00:01:32;;;;;;;349.00;197.93;;;;;;;20.35;68.69;99815.06;339754;29;1604;-76
2022/05/17 00:01:43;;;;;;;350.27;200.00;;;;;;;20.33;68.95;99811.69;336882;29;1354;-76
2022/05/17 00:01:54;;;;;;;351.20;200.60;;;;;;;20.32;68.83;99805.53;338419;29;1526;-76
2022/05/17 00:02:04;;;;;;;351.83;202.13;;;;;;;20.32;68.94;99810.00;341041;29;826;-76
2022/05/17 00:02:15;;;;;;;350.47;196.93;;;;;;;20.32;68.83;99821.47;337214;29;1013;-76
2022/05/17 00:02:25;;;;;;;351.08;197.65;;;;;;;20.30;69.14;99818.09;339690;29;1206;-76
2022/05/17 00:02:36;;;;;;;351.00;197.43;;;;;;;20.31;68.69;99818.94;338379;29;1214;-76
2022/05/17 00:02:46;;;;;;;349.85;199.15;;;;;;;20.31;69.02;99818.94;337569;29;1661;-76
2022/05/17 00:02:57;;;;;;;349.00;198.60;;;;;;;20.27;69.06;99813.84;335828;29;907;-76
2022/05/17 00:03:07;;;;;;;350.13;199.07;;;;;;;20.26;69.22;99816.63;335793;29;844;-76
2022/05/17 00:03:18;;;;;;;351.50;201.07;;;;;;;20.26;69.13;99814.81;339206;29;1610;-76
2022/05/17 00:03:28;;;;;;;349.37;198.70;;;;;;;20.22;69.17;99816.03;339432;29;1624;-76
2022/05/17 00:03:39;;;;;;;349.67;198.80;;;;;;;20.22;69.28;99813.38;335954;29;1277;-76
2022/05/17 00:03:49;;;;;;;351.33;199.90;;;;;;;20.21;69.07;99811.66;338096;29;1549;-76
2022/05/17 00:04:01;;;;;;;352.30;200.18;;;;;;;20.23;69.24;99817.72;338620;29;1414;-76
2022/05/17 00:04:11;;;;;;;350.08;199.70;;;;;;;20.21;69.50;99814.34;338411;29;1307;-76
2022/05/17 00:04:21;;;;;;;350.10;201.83;;;;;;;20.21;69.50;99817.00;339044;29;752;-76
2022/05/17 00:04:32;;;;;;;350.95;201.25;;;;;;;20.21;69.31;99817.00;339663;29;1293;-76
2022/05/17 00:04:43;;;;;;;351.98;200.70;;;;;;;20.21;69.18;99811.66;335713;29;1389;-76
2022/05/17 00:04:53;;;;;;;350.00;198.00;;;;;;;20.23;69.29;99817.72;339951;29;1239;-76
2022/05/17 00:05:04;;;;;;;350.10;198.47;;;;;;;20.25;69.12;99814.94;339524;29;1727;-76
2022/05/17 00:05:14;;;;;;;350.08;198.52;;;;;;;20.25;69.01;99815.78;339475;29;1556;-76
2022/05/17 00:05:27;;;;;;;348.98;198.23;;;;;;;20.24;69.38;99813.25;339792;29;814;-76
2022/05/17 00:05:37;;;;;;;348.77;198.80;;;;;;;20.27;69.11;99815.66;340038;29;1230;-76
2022/05/17 00:05:48;;;;;;;349.58;201.57;;;;;;;20.27;69.49;99816.50;338376;29;1411;-76
2022/05/17 00:05:58;;;;;;;351.53;205.17;;;;;;;20.29;69.07;99807.56;335517;29;1326;-76
2022/05/17 00:06:09;;;;;;;353.40;209.43;;;;;;;20.29;69.01;99807.56;336950;29;1333;-76
2022/05/17 00:06:20;;;;;;;353.60;206.90;;;;;;;20.29;69.01;99816.41;337020;29;1296;-76
2022/05/17 00:06:30;;;;;;;351.90;205.35;;;;;;;20.27;69.12;99813.84;338867;29;1124;-76
2022/05/17 00:06:41;;;;;;;350.75;203.50;;;;;;;20.23;69.41;99815.06;335797;29;925;-76
2022/05/17 00:06:51;;;;;;;349.90;201.17;;;;;;;20.21;69.20;99809.00;334398;29;807;-76
2022/05/17 00:07:03;;;;;;;354.30;204.37;;;;;;;20.16;69.64;99811.19;334423;29;799;-77
2022/05/17 00:07:14;;;;;;;352.50;200.65;;;;;;;20.16;69.70;99813.84;339611;29;909;-77
2022/05/17 00:07:25;;;;;;;349.60;200.15;;;;;;;20.13;69.78;99811.41;337495;29;6121;-77
2022/05/17 00:07:35;;;;;;;351.42;202.52;;;;;;;20.10;69.80;99810.81;339880;29;6485;-76
2022/05/17 00:07:46;;;;;;;355.47;205.70;;;;;;;20.11;69.93;99810.69;336673;29;1780;-76
2022/05/17 00:07:56;;;;;;;354.70;203.02;;;;;;;20.11;69.62;99810.69;338813;29;1847;-76
2022/05/17 00:08:07;;;;;;;352.80;199.80;;;;;;;20.12;69.67;99809.72;337906;29;3744;-76
2022/05/17 00:08:18;;;;;;;350.98;200.27;;;;;;;20.14;69.67;99807.78;334342;29;1234;-76
2022/05/17 00:08:28;;;;;;;355.33;203.18;;;;;;;20.12;69.76;99808.88;337067;29;854;-76
2022/05/17 00:08:39;;;;;;;355.00;202.33;;;;;;;20.12;69.97;99808.88;336119;29;1432;-76
2022/05/17 00:08:49;;;;;;;354.13;201.23;;;;;;;20.12;69.86;99808.88;338799;29;1414;-76
2022/05/17 00:09:00;;;;;;;352.33;201.47;;;;;;;20.14;69.47;99810.44;336438;29;1441;-76
2022/05/17 00:09:10;;;;;;;350.65;201.10;;;;;;;20.15;69.39;99814.81;339263;29;1907;-76
2022/05/17 00:09:20;;;;;;;350.53;201.47;;;;;;;20.12;69.61;99815.03;339132;29;1447;-75
2022/05/17 00:09:31;;;;;;;351.90;204.48;;;;;;;20.11;69.67;99808.03;335913;29;1601;-76
2022/05/17 00:09:42;;;;;;;352.25;201.25;;;;;;;20.09;70.07;99809.97;335630;29;1206;-76
2022/05/17 00:09:53;;;;;;;354.97;204.00;;;;;;;20.11;69.79;99808.03;336836;29;1315;-76
2022/05/17 00:10:04;;;;;;;355.05;201.73;;;;;;;20.11;69.67;99810.69;336935;29;1098;-76
2022/05/17 00:10:14;;;;;;;355.08;205.63;;;;;;;20.09;69.88;99807.31;339597;29;859;-76
2022/05/17 00:10:25;;;;;;;350.05;202.02;;;;;;;20.09;69.73;99811.75;339547;29;830;-76
2022/05/17 00:10:36;;;;;;;350.17;205.50;;;;;;;20.09;69.95;99809.97;336934;29;1169;-76
2022/05/17 00:10:47;;;;;;;354.90;206.03;;;;;;;20.08;70.04;99805.59;336752;29;1195;-76
2022/05/17 00:10:57;;;;;;;357.50;204.30;;;;;;;20.09;70.05;99803.78;336615;29;1610;-76
2022/05/17 00:11:10;;;;;;;358.63;202.83;;;;;;;20.10;69.86;99808.16;337033;29;1221;-76
2022/05/17 00:11:21;;;;;;;354.35;203.07;;;;;;;20.11;69.98;99808.03;338139;29;1374;-76
2022/05/17 00:11:31;;;;;;;356.30;207.82;;;;;;;20.11;70.03;99808.03;337073;29;913;-76
2022/05/17 00:11:44;;;;;;;355.07;206.43;;;;;;;20.12;69.76;99803.56;336983;29;1190;-76
2022/05/17 00:11:56;;;;;;;354.80;203.32;;;;;;;20.15;69.89;99804.16;336944;29;933;-76
2022/05/17 00:12:06;;;;;;;356.08;204.07;;;;;;;20.12;69.71;99807.06;336899;29;1414;-76
2022/05/17 00:12:17;;;;;;;356.48;206.77;;;;;;;20.14;69.70;99802.47;336882;29;1373;-76
2022/05/17 00:12:28;;;;;;;355.98;207.70;;;;;;;20.16;69.77;99813.00;336999;29;1201;-76
2022/05/17 00:12:38;;;;;;;356.42;207.25;;;;;;;20.16;69.80;99808.53;337128;29;870;-76
2022/05/17 00:12:50;;;;;;;357.13;206.10;;;;;;;20.14;70.03;99797.16;334154;29;1620;-76
2022/05/17 00:13:01;;;;;;;356.35;202.10;;;;;;;20.17;69.72;99801.41;336507;29;1511;-76
2022/05/17 00:13:11;;;;;;;358.88;203.38;;;;;;;20.15;69.83;99808.63;336795;29;976;-76
2022/05/17 00:13:22;;;;;;;360.90;207.77;;;;;;;20.14;69.41;99798.97;336700;29;1395;-76
2022/05/17 00:13:32;;;;;;;361.73;212.35;;;;;;;20.13;70.01;99803.44;337837;29;1734;-76
2022/05/17 00:13:43;;;;;;;359.93;212.33;;;;;;;20.14;69.96;99805.13;339473;29;1362;-76
2022/05/17 00:13:54;;;;;;;358.55;209.15;;;;;;;20.15;69.64;99805.97;335099;29;1605;-76
2022/05/17 00:14:04;;;;;;;358.17;208.52;;;;;;;20.15;69.83;99801.50;337986;29;1140;-76
2022/05/17 00:14:15;;;;;;;357.83;208.20;;;;;;;20.16;70.43;99805.88;336979;29;874;-76
2022/05/17 00:14:26;;;;;;;356.67;206.02;;;;;;;20.17;69.91;99804.91;336462;29;1336;-75
2022/05/17 00:14:39;;;;;;;354.40;203.68;;;;;;;20.19;69.92;99805.63;339490;29;1214;-76
2022/05/17 00:14:49;;;;;;;350.40;199.43;;;;;;;20.21;69.78;99801.03;336870;29;1437;-76
2022/05/17 00:15:00;;;;;;;350.63;199.07;;;;;;;20.21;69.83;99808.16;335293;29;1313;-76
2022/05/17 00:15:10;;;;;;;350.33;199.27;;;;;;;20.20;69.80;99804.66;335344;29;1428;-76
2022/05/17 00:15:21;;;;;;;351.53;200.53;;;;;;;20.18;69.87;99801.28;337000;29;1556;-76
2022/05/17 00:15:32;;;;;;;352.40;200.70;;;;;;;20.18;69.68;99801.28;340729;29;1393;-76
2022/05/17 00:15:45;;;;;;;353.83;202.57;;;;;;;20.19;69.47;99799.47;338311;29;1149;-76
2022/05/17 00:15:55;;;;;;;353.92;206.32;;;;;;;20.17;70.00;99799.59;335575;29;4945;-76
2022/05/17 00:16:06;;;;;;;351.92;204.85;;;;;;;20.15;69.82;99801.50;336933;29;799;-76
2022/05/17 00:16:16;;;;;;;351.53;202.63;;;;;;;20.14;69.97;99798.97;338274;29;1271;-76
2022/05/17 00:16:26;;;;;;;352.50;202.37;;;;;;;20.11;69.79;99797.41;336823;29;1278;-76
2022/05/17 00:16:37;;;;;;;355.50;205.30;;;;;;;20.12;69.51;99801.75;336332;29;5912;-76
2022/05/17 00:16:47;;;;;;;356.60;208.17;;;;;;;20.09;70.00;99799.31;338061;29;3633;-76
2022/05/17 00:16:58;;;;;;;361.17;209.25;;;;;;;20.09;70.00;99794.00;338140;29;1935;-76
2022/05/17 00:17:09;;;;;;;359.43;203.70;;;;;;;20.09;69.91;99798.47;336034;29;1555;-76
2022/05/17 00:17:19;;;;;;;360.55;205.82;;;;;;;20.09;69.83;99799.31;339299;29;847;-76
2022/05/17 00:17:30;;;;;;;355.23;204.88;;;;;;;20.08;69.90;99797.63;338110;29;818;-76
2022/05/17 00:17:40;;;;;;;356.77;209.73;;;;;;;20.09;69.95;99801.97;337996;29;942;-76
2022/05/17 00:17:51;;;;;;;355.30;203.30;;;;;;;20.07;69.84;99801.25;338117;29;778;-76
2022/05/17 00:18:04;;;;;;;355.25;205.05;;;;;;;20.08;69.87;99794.97;338258;29;866;-76
2022/05/17 00:18:16;;;;;;;356.58;203.48;;;;;;;20.07;69.71;99795.94;338000;29;1398;-76
2022/05/17 00:18:27;;;;;;;356.80;202.80;;;;;;;20.07;69.94;99789.78;340181;29;1436;-76
2022/05/17 00:18:37;;;;;;;357.63;203.38;;;;;;;20.06;69.78;99791.59;336946;29;1599;-76
2022/05/17 00:18:48;;;;;;;353.33;201.67;;;;;;;20.09;69.71;99795.81;338084;29;1560;-76
2022/05/17 00:18:58;;;;;;;353.95;202.25;;;;;;;20.11;69.47;99797.41;339201;29;1409;-76
2022/05/17 00:19:09;;;;;;;353.33;201.60;;;;;;;20.11;69.90;99794.75;339395;29;1644;-76
2022/05/17 00:19:20;;;;;;;354.10;201.68;;;;;;;20.14;69.79;99797.16;336904;29;842;-76
2022/05/17 00:19:30;;;;;;;352.63;202.93;;;;;;;20.14;69.54;99799.81;335746;29;859;-76
2022/05/17 00:19:41;;;;;;;352.77;203.52;;;;;;;20.11;69.92;99796.56;338305;29;867;-76
2022/05/17 00:19:51;;;;;;;353.73;203.50;;;;;;;20.08;70.17;99797.63;339576;29;1335;-76
2022/05/17 00:20:03;;;;;;;352.97;203.00;;;;;;;20.06;70.08;99804.88;337671;29;1348;-76
2022/05/17 00:20:13;;;;;;;352.33;201.25;;;;;;;20.03;70.13;99799.78;338311;29;1178;-76
2022/05/17 00:20:24;;;;;;;351.93;201.40;;;;;;;20.03;70.45;99790.97;335679;29;1210;-76
2022/05/17 00:20:34;;;;;;;352.08;200.48;;;;;;;20.03;70.40;99799.78;339638;29;1172;-76
2022/05/17 00:20:45;;;;;;;350.17;197.70;;;;;;;20.03;70.25;99789.16;339471;29;812;-76
2022/05/17 00:20:56;;;;;;;349.77;198.13;;;;;;;20.04;70.25;99796.19;335688;29;1447;-76
2022/05/17 00:21:06;;;;;;;352.25;202.55;;;;;;;20.03;70.54;99797.13;336975;29;1682;-76
2022/05/17 00:21:17;;;;;;;352.63;204.00;;;;;;;20.04;70.19;99795.31;338301;29;940;-76
2022/05/17 00:21:27;;;;;;;351.30;201.33;;;;;;;20.05;70.06;99797.88;338313;29;1211;-76
2022/05/17 00:21:38;;;;;;;349.48;196.38;;;;;;;20.03;70.37;99794.47;335747;29;1170;-76
2022/05/17 00:21:48;;;;;;;349.07;196.77;;;;;;;20.04;70.17;99801.50;338403;29;890;-76
2022/05/17 00:21:58;;;;;;;349.90;198.80;;;;;;;20.04;70.30;99798.84;338481;29;868;-76
2022/05/17 00:22:09;;;;;;;349.67;201.60;;;;;;;20.04;70.03;99798.84;336924;29;1287;-76
2022/05/17 00:22:19;;;;;;;349.93;204.00;;;;;;;20.05;70.30;99792.56;339728;29;1186;-76
2022/05/17 00:22:30;;;;;;;350.98;203.20;;;;;;;20.08;70.35;99796.78;337147;29;886;-76
2022/05/17 00:22:40;;;;;;;352.00;202.10;;;;;;;20.09;70.07;99793.16;339760;29;878;-76
2022/05/17 00:22:51;;;;;;;354.42;201.50;;;;;;;20.08;70.24;99797.63;337590;29;1484;-76
2022/05/17 00:23:02;;;;;;;354.92;202.70;;;;;;;20.06;70.25;99794.25;335456;29;1493;-76
2022/05/17 00:23:15;;;;;;;353.88;202.82;;;;;;;20.08;70.39;99805.59;338174;29;1149;-76
2022/05/17 00:23:26;;;;;;;352.35;201.38;;;;;;;20.07;70.08;99790.63;338285;29;1435;-75
2022/05/17 00:23:36;;;;;;;354.17;201.23;;;;;;;20.05;70.44;99800.53;337880;29;839;-75
2022/05/17 00:23:46;;;;;;;354.15;202.82;;;;;;;20.04;70.36;99793.50;335853;29;1493;-75
2022/05/17 00:23:57;;;;;;;353.33;203.27;;;;;;;20.07;70.06;99795.94;340572;29;1503;-75
2022/05/17 00:24:08;;;;;;;351.15;201.98;;;;;;;20.06;70.09;99793.41;341043;29;917;-75
2022/05/17 00:24:19;;;;;;;350.83;199.50;;;;;;;20.07;70.37;99801.25;339666;29;906;-76
2022/05/17 00:24:29;;;;;;;352.83;202.13;;;;;;;20.08;70.16;99792.31;335858;29;835;-76
2022/05/17 00:24:39;;;;;;;353.83;204.33;;;;;;;20.09;70.29;99796.66;335947;29;812;-76
2022/05/17 00:24:50;;;;;;;352.70;203.50;;;;;;;20.09;70.30;99796.66;338513;29;1465;-77
2022/05/17 00:25:01;;;;;;;352.52;204.55;;;;;;;20.09;69.90;99796.66;338030;29;1631;-76
2022/05/17 00:25:14;;;;;;;354.30;203.65;;;;;;;20.08;70.02;99794.97;335756;29;1325;-76
2022/05/17 00:25:24;;;;;;;352.98;205.10;;;;;;;20.09;70.32;99799.31;339829;29;1374;-76
2022/05/17 00:25:35;;;;;;;350.20;202.57;;;;;;;20.11;70.31;99794.75;339731;29;1476;-76
2022/05/17 00:25:49;;;;;;;351.00;200.88;;;;;;;20.09;70.10;99796.66;335179;29;5119;-76
2022/05/17 00:26:00;;;;;;;351.17;199.98;;;;;;;20.10;69.91;99793.03;337851;29;3633;-76
2022/05/17 00:26:10;;;;;;;352.92;201.63;;;;;;;20.08;70.29;99797.63;340980;29;1336;-76
2022/05/17 00:26:21;;;;;;;352.23;200.90;;;;;;;20.09;70.32;99796.66;340656;29;3570;-76
2022/05/17 00:26:34;;;;;;;351.75;197.38;;;;;;;20.08;70.31;99792.31;337756;29;936;-76
2022/05/17 00:26:44;;;;;;;346.80;193.93;;;;;;;20.08;69.99;99794.13;338355;29;1420;-76
2022/05/17 00:26:55;;;;;;;347.23;196.32;;;;;;;20.08;70.31;99796.78;339216;29;1164;-76
2022/05/17 00:27:06;;;;;;;348.63;200.20;;;;;;;20.07;70.29;99801.25;338396;29;1063;-76
2022/05/17 00:27:17;;;;;;;351.38;203.40;;;;;;;20.07;70.16;99795.94;339630;29;1207;-76
2022/05/17 00:27:27;;;;;;;353.70;204.13;;;;;;;20.04;70.58;99796.19;339717;29;794;-76
2022/05/17 00:27:37;;;;;;;354.10;199.90;;;;;;;20.01;70.26;99801.72;337013;29;1223;-76
2022/05/17 00:27:48;;;;;;;354.40;199.40;;;;;;;19.99;70.50;99797.50;336626;29;1359;-78
2022/05/17 00:27:59;;;;;;;352.60;199.50;;;;;;;19.99;70.44;99790.38;336570;29;1154;-76
2022/05/17 00:28:11;;;;;;;351.88;203.82;;;;;;;19.96;70.30;99797.72;337858;29;1060;-77
2022/05/17 00:28:21;;;;;;;350.85;204.13;;;;;;;19.96;70.52;99803.88;338311;29;791;-76
2022/05/17 00:28:32;;;;;;;353.00;206.38;;;;;;;19.92;70.67;99800.66;337125;29;1277;-76
2022/05/17 00:28:42;;;;;;;353.83;204.65;;;;;;;19.93;70.46;99798.81;338324;29;1537;-76
2022/05/17 00:28:53;;;;;;;354.77;204.73;;;;;;;19.92;70.50;99802.44;337990;29;1504;-76
2022/05/17 00:29:04;;;;;;;356.03;205.53;;;;;;;19.91;70.41;99798.09;335695;29;1218;-76
2022/05/17 00:29:14;;;;;;;354.88;207.00;;;;;;;19.88;70.60;99798.34;336754;29;1923;-76
2022/05/17 00:29:25;;;;;;;352.73;206.47;;;;;;;19.88;70.80;99801.00;339099;29;886;-75
2022/05/17 00:29:35;;;;;;;352.92;202.38;;;;;;;19.88;70.80;99801.00;338253;29;1455;-75
2022/05/17 00:29:45;;;;;;;355.20;203.77;;;;;;;19.89;70.55;99795.56;335742;29;1182;-75
2022/05/17 00:29:56;;;;;;;355.30;204.27;;;;;;;19.86;70.66;99797.59;335723;29;1244;-75
2022/05/17 00:30:07;;;;;;;357.20;207.05;;;;;;;19.78;71.21;99800.00;334211;29;1686;-75
2022/05/17 00:30:18;;;;;;;359.23;204.40;;;;;;;19.79;71.06;99796.38;336805;29;1759;-75
2022/05/17 00:30:28;;;;;;;356.63;202.48;;;;;;;19.77;71.09;99798.31;337257;29;1021;-75
2022/05/17 00:30:38;;;;;;;355.70;201.23;;;;;;;19.76;71.26;99796.59;339817;29;858;-75
2022/05/17 00:30:49;;;;;;;350.77;200.85;;;;;;;19.78;71.24;99800.00;339203;29;1208;-75
2022/05/17 00:31:00;;;;;;;352.43;201.17;;;;;;;19.77;71.29;99798.31;337774;29;842;-75
2022/05/17 00:31:10;;;;;;;352.13;201.63;;;;;;;19.77;71.23;99803.63;337134;29;1240;-75
2022/05/17 00:31:21;;;;;;;354.57;202.60;;;;;;;19.74;71.40;99798.53;338370;29;862;-75
2022/05/17 00:31:31;;;;;;;354.88;202.32;;;;;;;19.72;71.46;99811.09;338398;29;1202;-75
2022/05/17 00:31:42;;;;;;;353.90;202.00;;;;;;;19.73;71.36;99796.84;338281;29;1336;-75
2022/05/17 00:31:52;;;;;;;355.53;204.40;;;;;;;19.72;71.32;99800.47;335862;29;871;-75
2022/05/17 00:32:03;;;;;;;356.08;204.40;;;;;;;19.72;71.21;99801.31;335458;29;1645;-75
2022/05/17 00:32:13;;;;;;;357.47;204.60;;;;;;;19.76;71.14;99801.91;335790;29;854;-75
2022/05/17 00:32:24;;;;;;;358.55;204.32;;;;;;;19.76;71.16;99799.25;337010;29;1285;-75
2022/05/17 00:32:35;;;;;;;357.13;203.85;;;;;;;19.76;71.28;99802.78;338723;29;1461;-75
2022/05/17 00:32:45;;;;;;;357.53;204.90;;;;;;;19.74;71.14;99798.53;334485;29;4288;-75
2022/05/17 00:32:55;;;;;;;356.73;205.30;;;;;;;19.75;71.21;99800.22;337278;29;3696;-75
2022/05/17 00:33:06;;;;;;;360.50;209.40;;;;;;;19.74;71.12;99803.84;337295;29;1408;-75
2022/05/17 00:33:16;;;;;;;359.40;208.60;;;;;;;19.75;71.23;99795.75;338701;29;3318;-75
2022/05/17 00:33:27;;;;;;;363.80;211.00;;;;;;;19.77;71.04;99803.63;337646;29;4884;-75
2022/05/17 00:33:38;;;;;;;361.43;205.17;;;;;;;19.78;71.32;99805.31;339539;29;1190;-75
2022/05/17 00:33:49;;;;;;;358.95;202.88;;;;;;;19.79;71.41;99802.53;336804;29;1475;-75
2022/05/17 00:34:00;;;;;;;353.35;196.65;;;;;;;19.80;71.14;99798.91;336696;29;1333;-75
2022/05/17 00:34:11;;;;;;;352.67;197.32;;;;;;;19.81;71.55;99803.28;339772;29;874;-75
2022/05/17 00:34:24;;;;;;;353.77;198.18;;;;;;;19.83;71.07;99798.69;338269;29;1033;-75
2022/05/17 00:34:34;;;;;;;355.05;200.38;;;;;;;19.85;71.28;99803.88;342314;28;833;-75
2022/05/17 00:34:46;;;;;;;356.90;199.27;;;;;;;19.87;71.17;99804.63;339623;29;1198;-75
2022/05/17 00:34:57;;;;;;;356.42;200.55;;;;;;;19.88;70.94;99807.16;335630;29;1548;-75
2022/05/17 00:35:08;;;;;;;353.20;197.60;;;;;;;19.89;71.54;99805.34;337977;29;1509;-75
2022/05/17 00:35:18;;;;;;;352.02;200.00;;;;;;;19.89;71.00;99806.19;335658;29;5995;-75
2022/05/17 00:35:29;;;;;;;350.07;198.20;;;;;;;19.86;71.00;99797.59;335644;29;3589;-75
2022/05/17 00:35:39;;;;;;;355.20;202.40;;;;;;;19.87;71.05;99799.31;337043;29;2007;-75
2022/05/17 00:35:50;;;;;;;356.90;201.17;;;;;;;19.83;71.39;99805.81;335845;29;3855;-75
2022/05/17 00:36:00;;;;;;;357.05;204.05;;;;;;;19.83;71.45;99800.50;336948;29;1796;-75
2022/05/17 00:36:11;;;;;;;354.17;201.13;;;;;;;19.81;71.29;99799.75;340623;29;1657;-75
2022/05/17 00:36:22;;;;;;;351.70;200.48;;;;;;;19.82;71.32;99807.63;340683;29;1642;-75
2022/05/17 00:36:32;;;;;;;351.83;200.00;;;;;;;19.78;71.45;99797.34;337060;29;1529;-75
2022/05/17 00:36:43;;;;;;;351.80;202.37;;;;;;;19.75;71.93;99800.22;336990;29;1226;-75
2022/05/17 00:36:53;;;;;;;354.05;202.60;;;;;;;19.77;71.40;99803.63;338437;29;799;-75
2022/05/17 00:37:04;;;;;;;353.33;202.33;;;;;;;19.73;71.70;99804.81;339347;29;1198;-75
2022/05/17 00:37:14;;;;;;;352.65;199.52;;;;;;;19.76;71.63;99807.22;337140;29;1025;-75
2022/05/17 00:37:25;;;;;;;351.90;196.97;;;;;;;19.77;71.86;99800.97;336673;29;1519;-75
2022/05/17 00:37:36;;;;;;;351.30;196.47;;;;;;;19.73;71.73;99796.84;335566;29;1452;-75
2022/05/17 00:37:46;;;;;;;349.88;196.75;;;;;;;19.72;71.70;99806.63;337015;29;1526;-76
2022/05/17 00:37:57;;;;;;;349.80;198.90;;;;;;;19.74;71.82;99803.84;339396;29;1288;-76
2022/05/17 00:38:07;;;;;;;352.02;198.57;;;;;;;19.67;72.02;99799.94;339566;29;1484;-76
2022/05/17 00:38:17;;;;;;;352.97;200.27;;;;;;;19.68;72.06;99804.31;335749;29;1976;-76
2022/05/17 00:38:28;;;;;;;356.10;203.55;;;;;;;19.68;71.85;99799.84;335982;29;1005;-76
2022/05/17 00:38:38;;;;;;;356.40;206.10;;;;;;;19.65;71.85;99804.53;335742;29;1250;-76
2022/05/17 00:38:49;;;;;;;356.88;205.65;;;;;;;19.66;71.99;99800.91;339474;29;1519;-76
2022/05/17 00:38:59;;;;;;;357.70;204.80;;;;;;;19.64;72.19;99798.38;338224;29;1024;-76
2022/05/17 00:39:09;;;;;;;355.35;202.68;;;;;;;19.63;72.17;99798.50;339693;29;1218;-76
2022/05/17 00:39:20;;;;;;;355.43;202.50;;;;;;;19.62;72.28;99804.75;339416;29;1414;-76
2022/05/17 00:39:31;;;;;;;354.15;200.70;;;;;;;19.63;72.27;99803.81;336473;29;1209;-76
2022/05/17 00:39:42;;;;;;;355.73;203.15;;;;;;;19.64;72.33;99797.53;339599;29;1285;-76
2022/05/17 00:39:52;;;;;;;356.20;204.30;;;;;;;19.63;71.94;99803.81;337098;29;1092;-76
2022/05/17 00:40:04;;;;;;;356.70;205.27;;;;;;;19.64;72.08;99802.84;339071;29;1602;-76
2022/05/17 00:40:15;;;;;;;357.52;204.77;;;;;;;19.64;71.96;99797.53;338559;29;1340;-76
2022/05/17 00:40:25;;;;;;;359.35;205.98;;;;;;;19.62;72.25;99796.78;337129;29;818;-76
2022/05/17 00:40:36;;;;;;;357.67;207.27;;;;;;;19.59;72.32;99801.38;339734;29;732;-76
2022/05/17 00:40:46;;;;;;;357.20;207.35;;;;;;;19.60;72.29;99802.22;337043;29;866;-76
2022/05/17 00:40:57;;;;;;;355.17;206.80;;;;;;;19.59;72.42;99804.03;338432;29;775;-76
2022/05/17 00:41:07;;;;;;;355.25;206.30;;;;;;;19.59;72.50;99796.06;338313;29;1289;-76
2022/05/17 00:41:17;;;;;;;354.67;205.67;;;;;;;19.60;72.29;99797.75;336970;29;1507;-76
2022/05/17 00:41:28;;;;;;;354.43;203.23;;;;;;;19.60;72.41;99797.75;337136;29;885;-76
2022/05/17 00:41:38;;;;;;;356.00;203.63;;;;;;;19.62;72.40;99804.75;339618;29;1346;-75
2022/05/17 00:41:48;;;;;;;356.07;203.47;;;;;;;19.62;72.34;99802.09;340845;29;1176;-75
2022/05/17 00:41:59;;;;;;;358.58;207.13;;;;;;;19.63;72.39;99802.00;339819;29;693;-75
2022/05/17 00:42:09;;;;;;;357.13;208.80;;;;;;;19.62;72.13;99802.09;333955;29;4191;-75
2022/05/17 00:42:20;;;;;;;357.05;208.90;;;;;;;19.65;72.48;99804.53;339370;29;3500;-75
2022/05/17 00:42:30;;;;;;;358.27;208.90;;;;;;;19.65;72.22;99793.91;342015;28;1699;-75
2022/05/17 00:42:41;;;;;;;357.60;205.23;;;;;;;19.68;72.24;99801.66;340698;28;1775;-75
2022/05/17 00:42:51;;;;;;;355.92;203.70;;;;;;;19.66;72.16;99800.91;338274;29;1333;-75
2022/05/17 00:43:01;;;;;;;353.40;203.00;;;;;;;19.67;72.44;99800.81;335712;29;1585;-75
2022/05/17 00:43:14;;;;;;;353.33;203.35;;;;;;;19.68;72.32;99799.00;338234;29;1503;-75
2022/05/17 00:44:42;;;;;;;353.58;204.68;;;;;;;19.67;72.24;99800.81;338255;29;1288;-75
2022/05/17 00:44:44;;;;;;;351.27;199.55;;;;;;;19.65;72.09;99799.22;337131;29;842;-75
2022/05/17 00:44:54;;;;;;;350.67;198.40;;;;;;;19.69;72.27;99800.69;337663;29;1230;-75
2022/05/17 00:45:07;;;;;;;353.67;202.13;;;;;;;19.68;72.23;99799.84;334255;29;1254;-75
2022/05/17 00:45:18;;;;;;;356.27;201.85;;;;;;;19.68;72.19;99799.84;333077;29;1435;-75
2022/05/17 00:45:28;;;;;;;356.37;201.80;;;;;;;19.66;72.02;99807.06;334382;29;1103;-75
2022/05/17 00:45:40;;;;;;;356.25;202.50;;;;;;;19.66;72.10;99801.75;336663;29;1520;-75
2022/05/17 00:45:50;;;;;;;356.65;204.98;;;;;;;19.69;71.78;99806.84;338105;29;1689;-75
2022/05/17 00:46:01;;;;;;;356.80;205.55;;;;;;;19.69;71.71;99806.00;336756;29;1311;-75
2022/05/17 00:46:12;;;;;;;354.95;201.80;;;;;;;19.65;71.20;99800.06;338478;29;1225;-75
2022/05/17 00:46:26;;;;;;;354.20;201.50;;;;;;;19.62;71.12;99807.41;340610;29;1628;-75
2022/05/17 00:46:53;;;;;;;353.10;200.98;;;;;;;19.57;70.81;99808.59;338191;29;1431;-75
2022/05/17 00:47:23;;;;;;;348.10;197.23;;;;;;;19.57;70.84;99810.41;339938;29;1498;-75
2022/05/17 00:47:43;;;;;;;349.42;198.88;;;;;;;19.57;70.72;99803.28;338191;29;5542;-75
2022/05/17 00:48:01;;;;;;;352.67;201.30;;;;;;;19.59;70.75;99804.03;336896;29;5238;-75
2022/05/17 00:48:11;;;;;;;349.90;197.30;;;;;;;19.59;70.70;99806.69;336414;29;5378;-75
2022/05/17 00:48:22;;;;;;;349.23;196.38;;;;;;;19.62;70.57;99807.41;339729;29;1100;-75
2022/05/17 00:48:32;;;;;;;350.13;198.70;;;;;;;19.59;70.34;99804.03;338238;29;1182;-75
2022/05/17 00:48:43;;;;;;;351.90;201.60;;;;;;;19.60;70.49;99807.53;335702;29;1475;-76
2022/05/17 00:48:53;;;;;;;352.77;203.10;;;;;;;19.58;70.56;99802.34;336450;29;1484;-76
2022/05/17 00:49:04;;;;;;;353.13;204.77;;;;;;;19.60;70.62;99804.88;338061;29;1487;-76
2022/05/17 00:49:26;;;;;;;352.52;202.90;;;;;;;19.57;70.54;99800.63;336525;29;1906;-76
2022/05/17 00:49:51;;;;;;;349.75;197.40;;;;;;;19.56;70.08;99806.91;337134;29;1671;-76
2022/05/17 00:50:23;;;;;;;347.67;196.02;;;;;;;19.56;69.76;99798.09;334248;29;1789;-76
2022/05/17 00:50:37;;;;;;;348.60;199.68;;;;;;;19.55;69.67;99805.22;338144;29;1281;-76
2022/05/17 00:50:48;;;;;;;349.33;201.27;;;;;;;19.54;69.91;99806.19;338788;29;1587;-76
2022/05/17 00:50:58;;;;;;;351.95;202.50;;;;;;;19.54;69.85;99798.22;339980;29;1224;-76
2022/05/17 00:51:09;;;;;;;352.90;203.40;;;;;;;19.58;69.62;99806.81;338426;29;940;-76
2022/05/17 00:51:19;;;;;;;354.23;204.13;;;;;;;19.55;69.80;99804.38;335727;29;6041;-75
2022/05/17 00:51:30;;;;;;;351.77;200.45;;;;;;;19.54;69.42;99808.84;338673;29;3665;-75
2022/05/17 00:51:41;;;;;;;351.10;195.38;;;;;;;19.56;69.37;99800.75;339643;29;1353;-75
2022/05/17 00:51:52;;;;;;;348.73;192.93;;;;;;;19.54;69.57;99803.53;333998;29;1523;-75
2022/05/17 00:52:09;;;;;;;348.35;193.27;;;;;;;19.56;69.28;99801.59;336456;29;3346;-75
2022/05/17 00:52:22;;;;;;;348.13;197.35;;;;;;;19.58;69.20;99804.13;336890;29;5396;-75
2022/05/17 00:52:54;;;;;;;346.88;192.95;;;;;;;19.60;69.35;99808.38;337362;29;5640;-75